Time;durP1;ratioP1;P1;durP2;ratioP2;P2;SDS_P1;SDS_P2;PMS_P1;PMS_P2;Temp;Humidity;BMP_temperature;BMP_pressure;BME280_temperature;BME280_humidity;BME280_pressure;Samples;Min_cycle;Max_cycle;Signal;HPM_P1;HPM_P2
2022/07/10 00:01:06;;;;;;;6.93;1.30;;;11.80;99.90;;;;;;5086997;28;20055;-42
2022/07/10 00:03:32;;;;;;;7.22;1.02;;;11.60;99.90;;;;;;5088936;28;20469;-41
2022/07/10 00:05:57;;;;;;;5.28;0.70;;;11.40;99.90;;;;;;5089192;28;20043;-42
2022/07/10 00:08:23;;;;;;;3.75;0.50;;;11.60;99.90;;;;;;5089550;28;20042;-41
2022/07/10 00:10:49;;;;;;;8.27;0.95;;;12.10;99.90;;;;;;5088528;28;20354;-40
2022/07/10 00:13:14;;;;;;;7.20;1.02;;;11.50;99.90;;;;;;5089108;28;20052;-40
2022/07/10 00:15:40;;;;;;;7.68;1.00;;;11.80;99.90;;;;;;5089203;28;20460;-40
2022/07/10 00:18:06;;;;;;;7.25;1.02;;;11.40;99.90;;;;;;5088075;28;20044;-41
2022/07/10 00:20:32;;;;;;;7.20;0.75;;;11.30;99.90;;;;;;5089272;28;20062;-41
2022/07/10 00:22:57;;;;;;;7.28;0.60;;;12.00;99.90;;;;;;5089282;28;20047;-42
2022/07/10 00:25:23;;;;;;;10.57;0.82;;;11.20;99.90;;;;;;5088989;28;20081;-41
2022/07/10 00:27:49;;;;;;;10.80;1.17;;;11.40;99.90;;;;;;5089013;28;20070;-41
2022/07/10 00:30:14;;;;;;;5.63;0.57;;;11.10;99.90;;;;;;5088615;28;20040;-41
2022/07/10 00:32:40;;;;;;;5.60;0.75;;;11.20;99.90;;;;;;5088261;28;20047;-40
2022/07/10 00:35:06;;;;;;;7.93;1.17;;;11.00;99.90;;;;;;5088009;28;20044;-41
2022/07/10 00:37:33;;;;;;;8.18;0.80;;;11.20;99.90;;;;;;5088277;28;20043;-42
2022/07/10 00:39:59;;;;;;;6.43;0.70;;;11.80;99.90;;;;;;5087421;28;20055;-42
2022/07/10 00:42:26;;;;;;;6.57;0.82;;;11.20;99.90;;;;;;5088277;28;20173;-41
2022/07/10 00:44:52;;;;;;;4.75;0.40;;;11.20;99.90;;;;;;5088325;28;20449;-41
2022/07/10 00:47:19;;;;;;;5.80;0.93;;;11.10;99.90;;;;;;5088146;28;20047;-42
2022/07/10 00:49:46;;;;;;;6.22;0.63;;;11.10;99.90;;;;;;5088110;28;20044;-41
2022/07/10 00:52:14;;;;;;;7.10;0.73;;;11.20;99.90;;;;;;5087763;28;20545;-42
2022/07/10 00:54:45;;;;;;;8.63;0.57;;;10.90;99.90;;;;;;5088124;28;20051;-41
2022/07/10 00:57:14;;;;;;;8.18;0.50;;;11.60;99.90;;;;;;5087789;28;20331;-40
2022/07/10 00:59:40;;;;;;;6.32;0.70;;;11.40;99.90;;;;;;5088094;28;20040;-42
2022/07/10 01:02:06;;;;;;;6.15;0.80;;;10.70;99.90;;;;;;5087473;28;20048;-42
2022/07/10 01:04:32;;;;;;;6.40;0.80;;;10.90;99.90;;;;;;5087671;28;20080;-43
2022/07/10 01:06:58;;;;;;;7.20;0.95;;;10.60;99.90;;;;;;5087711;28;20127;-41
2022/07/10 01:09:24;;;;;;;6.25;0.40;;;11.00;99.90;;;;;;5087352;28;20176;-44
2022/07/10 01:11:51;;;;;;;3.55;0.40;;;11.40;99.90;;;;;;5086933;28;20052;-41
2022/07/10 01:14:16;;;;;;;3.95;0.50;;;10.80;99.90;;;;;;5087843;28;20224;-41
2022/07/10 01:16:42;;;;;;;5.28;0.60;;;11.30;99.90;;;;;;5088042;28;20201;-41
2022/07/10 01:19:08;;;;;;;4.20;0.60;;;11.10;99.90;;;;;;5087548;28;20036;-41
2022/07/10 01:21:35;;;;;;;6.53;0.45;;;11.10;99.90;;;;;;5088284;28;20393;-41
2022/07/10 01:24:06;;;;;;;5.20;0.73;;;11.10;99.90;;;;;;5088896;28;20036;-41
2022/07/10 01:26:32;;;;;;;4.68;0.60;;;11.30;99.90;;;;;;5087466;28;20039;-41
2022/07/10 01:29:01;;;;;;;3.47;0.57;;;11.20;99.90;;;;;;5087748;28;20047;-42
2022/07/10 01:31:28;;;;;;;4.95;0.45;;;11.20;99.90;;;;;;5086894;28;20054;-42
2022/07/10 01:33:55;;;;;;;5.82;0.60;;;10.90;99.90;;;;;;5087996;28;20375;-41
2022/07/10 01:36:23;;;;;;;8.95;0.77;;;10.80;99.90;;;;;;5087341;28;20044;-41
2022/07/10 01:38:52;;;;;;;4.65;0.52;;;11.90;99.90;;;;;;5087707;28;20047;-42
2022/07/10 01:41:18;;;;;;;5.32;0.52;;;10.90;99.90;;;;;;5086967;28;20060;-41
2022/07/10 01:43:44;;;;;;;3.42;0.45;;;10.80;99.90;;;;;;5087730;28;20362;-40
2022/07/10 01:46:11;;;;;;;6.47;1.50;;;10.80;99.90;;;;;;5086661;28;20044;-41
2022/07/10 01:48:41;;;;;;;4.03;0.47;;;10.90;99.90;;;;;;5086919;28;20486;-41
2022/07/10 01:51:08;;;;;;;5.35;0.73;;;11.20;99.90;;;;;;5087048;28;20499;-42
2022/07/10 01:53:33;;;;;;;7.68;0.88;;;11.20;99.90;;;;;;5086949;28;20040;-42
2022/07/10 01:56:02;;;;;;;8.68;1.98;;;11.40;99.90;;;;;;5087421;28;20398;-42
2022/07/10 01:58:28;;;;;;;4.70;0.98;;;11.40;99.90;;;;;;5087770;28;20082;-40
2022/07/10 02:00:54;;;;;;;5.72;0.50;;;11.40;99.90;;;;;;5088448;28;20118;-41
2022/07/10 02:06:04;;;;;;;6.25;0.73;;;11.30;99.90;;;;;;5087676;28;20175;-39
2022/07/10 02:08:29;;;;;;;7.20;0.80;;;11.20;99.90;;;;;;5090510;28;20129;-40
2022/07/10 02:10:55;;;;;;;9.15;0.90;;;12.10;99.90;;;;;;5090680;28;20462;-43
2022/07/10 02:13:21;;;;;;;9.73;1.85;;;11.70;99.90;;;;;;5091292;28;20044;-41
2022/07/10 02:15:47;;;;;;;6.28;0.93;;;11.40;99.90;;;;;;5091479;28;20055;-43
2022/07/10 02:18:13;;;;;;;8.27;0.60;;;11.60;99.90;;;;;;5091035;28;20481;-41
2022/07/10 02:20:39;;;;;;;6.88;0.90;;;12.10;99.90;;;;;;5091558;28;20389;-42
2022/07/10 02:23:06;;;;;;;11.50;0.75;;;11.60;99.90;;;;;;5091139;28;20055;-44
2022/07/10 02:25:33;;;;;;;9.45;0.80;;;11.30;99.90;;;;;;5091310;28;20378;-43
2022/07/10 02:27:59;;;;;;;8.73;0.85;;;12.30;99.90;;;;;;5091453;28;20046;-41
2022/07/10 02:30:24;;;;;;;9.18;1.40;;;11.30;99.90;;;;;;5090850;28;20064;-42
2022/07/10 02:32:50;;;;;;;10.45;1.13;;;11.40;99.90;;;;;;5091679;28;20044;-42
2022/07/10 02:35:15;;;;;;;3.58;0.70;;;11.20;99.90;;;;;;5091522;28;20089;-40
2022/07/10 02:37:41;;;;;;;9.52;1.10;;;11.00;99.90;;;;;;5091385;28;20443;-41
2022/07/10 02:40:07;;;;;;;7.38;0.70;;;11.20;99.90;;;;;;5091760;28;20401;-42
2022/07/10 02:42:33;;;;;;;5.10;0.60;;;10.80;99.90;;;;;;5090730;28;20039;-41
2022/07/10 02:44:59;;;;;;;8.32;0.77;;;11.10;99.90;;;;;;5091165;28;20371;-43
2022/07/10 02:47:24;;;;;;;7.00;0.65;;;10.70;99.90;;;;;;5090678;28;20199;-41
2022/07/10 02:49:50;;;;;;;8.60;0.80;;;10.70;99.90;;;;;;5090981;28;20043;-40
2022/07/10 02:52:16;;;;;;;6.13;0.60;;;11.10;99.90;;;;;;5090639;28;20040;-41
2022/07/10 02:54:41;;;;;;;5.13;0.70;;;11.40;99.90;;;;;;5090143;28;20035;-44
2022/07/10 02:57:07;;;;;;;9.00;1.17;;;10.90;99.90;;;;;;5090384;28;20177;-41
2022/07/10 02:59:33;;;;;;;7.10;0.55;;;10.80;99.90;;;;;;5090296;28;20048;-42
2022/07/10 03:01:59;;;;;;;7.43;0.40;;;10.80;99.90;;;;;;5089869;28;20405;-40
2022/07/10 03:04:24;;;;;;;7.00;1.02;;;10.60;99.90;;;;;;5090029;28;20040;-42
2022/07/10 03:06:50;;;;;;;4.75;0.65;;;10.50;99.90;;;;;;5090836;28;20087;-43
2022/07/10 03:09:16;;;;;;;4.13;1.40;;;10.70;99.90;;;;;;5090153;28;20043;-40
2022/07/10 03:11:41;;;;;;;6.43;0.70;;;10.20;99.90;;;;;;5089010;28;20079;-41
2022/07/10 03:14:07;;;;;;;4.93;0.55;;;10.10;99.90;;;;;;5089884;28;20123;-41
2022/07/10 03:16:32;;;;;;;5.57;0.38;;;9.80;99.90;;;;;;5090385;28;20089;-41
2022/07/10 03:18:58;;;;;;;12.13;1.55;;;11.00;99.90;;;;;;5089805;28;20037;-42
2022/07/10 03:21:24;;;;;;;6.95;0.38;;;10.00;99.90;;;;;;5090115;28;20397;-40
2022/07/10 03:23:50;;;;;;;3.25;0.75;;;9.80;99.90;;;;;;5090254;28;20394;-41
2022/07/10 03:26:15;;;;;;;9.93;0.95;;;10.50;99.90;;;;;;5089930;28;20044;-41
2022/07/10 03:28:41;;;;;;;9.43;0.60;;;9.70;99.90;;;;;;5089242;28;20039;-41
2022/07/10 03:31:07;;;;;;;6.20;0.60;;;9.40;99.90;;;;;;5089679;28;20550;-42
2022/07/10 03:33:33;;;;;;;7.50;0.73;;;10.00;99.90;;;;;;5089259;28;20055;-40
2022/07/10 03:36:01;;;;;;;8.63;0.60;;;9.60;99.90;;;;;;5089647;28;20048;-43
2022/07/10 03:38:27;;;;;;;5.55;0.77;;;9.90;99.90;;;;;;5089224;28;20036;-42
2022/07/10 03:40:53;;;;;;;7.63;0.65;;;9.40;99.90;;;;;;5089605;28;20493;-40
2022/07/10 03:43:19;;;;;;;7.38;0.90;;;9.60;99.90;;;;;;5089920;28;20047;-41
2022/07/10 03:45:44;;;;;;;6.05;0.70;;;9.60;99.90;;;;;;5090014;28;20104;-41
2022/07/10 03:48:10;;;;;;;10.27;0.50;;;9.90;99.90;;;;;;5089744;28;20550;-41
2022/07/10 03:50:36;;;;;;;10.57;0.68;;;9.70;99.90;;;;;;5089428;28;20485;-41
2022/07/10 03:53:01;;;;;;;7.05;0.50;;;9.70;99.90;;;;;;5089126;28;20402;-41
2022/07/10 03:55:27;;;;;;;7.10;0.60;;;9.70;99.90;;;;;;5089132;28;20131;-42
2022/07/10 03:57:57;;;;;;;3.47;0.50;;;9.60;99.90;;;;;;5089733;28;20054;-42
2022/07/10 04:00:24;;;;;;;6.05;0.82;;;10.80;99.90;;;;;;5089793;28;20565;-42
2022/07/10 04:03:03;;;;;;;4.20;0.50;;;10.20;99.90;;;;;;5089542;28;20040;-41
2022/07/10 04:05:29;;;;;;;9.13;1.00;;;10.40;99.90;;;;;;5089587;28;20028;-43
2022/07/10 04:07:59;;;;;;;6.68;0.98;;;10.70;99.90;;;;;;5089354;28;20415;-41
2022/07/10 04:10:26;;;;;;;5.82;0.50;;;10.80;99.90;;;;;;5088619;28;20122;-42
2022/07/10 04:12:52;;;;;;;9.75;0.80;;;10.80;99.90;;;;;;5088546;28;20116;-40
2022/07/10 04:15:18;;;;;;;5.43;0.55;;;11.90;99.90;;;;;;5089206;28;20052;-42
2022/07/10 04:17:43;;;;;;;6.15;0.75;;;11.50;99.90;;;;;;5089480;28;20127;-41
2022/07/10 04:20:10;;;;;;;9.60;0.60;;;11.70;99.90;;;;;;5089065;28;20122;-42
2022/07/10 04:22:35;;;;;;;4.80;0.50;;;11.90;99.90;;;;;;5088694;28;20092;-41
2022/07/10 04:25:02;;;;;;;6.38;0.70;;;11.80;99.90;;;;;;5089062;28;20040;-41
2022/07/10 04:27:28;;;;;;;6.50;0.80;;;12.10;99.90;;;;;;5088892;28;20035;-41
2022/07/10 04:29:54;;;;;;;8.10;0.57;;;12.10;99.90;;;;;;5087747;28;20040;-41
2022/07/10 04:32:19;;;;;;;7.05;0.50;;;12.20;99.90;;;;;;5088382;28;20111;-41
2022/07/10 04:34:45;;;;;;;6.22;0.43;;;12.10;99.90;;;;;;5088310;28;20127;-41
2022/07/10 04:37:11;;;;;;;3.30;0.40;;;13.10;99.90;;;;;;5088036;28;20488;-42
2022/07/10 04:39:40;;;;;;;8.38;1.00;;;12.20;99.90;;;;;;5088194;28;20036;-43
2022/07/10 04:42:06;;;;;;;9.10;0.60;;;12.50;99.90;;;;;;5088101;28;20505;-42
2022/07/10 04:44:32;;;;;;;8.80;0.85;;;12.70;99.90;;;;;;5088413;28;20463;-41
2022/07/10 04:46:58;;;;;;;8.50;0.60;;;12.70;99.90;;;;;;5088667;28;20043;-41
2022/07/10 04:49:24;;;;;;;6.38;0.43;;;12.70;99.90;;;;;;5088596;28;20035;-41
2022/07/10 04:51:50;;;;;;;5.25;0.50;;;12.80;99.90;;;;;;5088388;28;20119;-41
2022/07/10 04:54:16;;;;;;;7.05;0.63;;;12.80;99.90;;;;;;5088213;28;20115;-41
2022/07/10 04:56:41;;;;;;;4.53;0.40;;;13.90;99.90;;;;;;5087921;28;20105;-42
2022/07/10 04:59:07;;;;;;;4.70;0.70;;;13.00;99.90;;;;;;5088505;28;20044;-41
2022/07/10 05:01:33;;;;;;;4.03;0.50;;;13.10;99.90;;;;;;5088557;28;20048;-42
2022/07/10 05:03:59;;;;;;;4.97;0.30;;;13.10;99.90;;;;;;5088396;28;20394;-42
2022/07/10 05:06:24;;;;;;;7.97;0.60;;;13.20;99.90;;;;;;5088665;28;20040;-43
2022/07/10 05:08:50;;;;;;;3.75;0.75;;;13.20;99.90;;;;;;5088037;28;20063;-41
2022/07/10 05:11:16;;;;;;;3.63;0.60;;;13.60;99.90;;;;;;5087708;28;20059;-41
2022/07/10 05:13:45;;;;;;;4.30;0.70;;;13.10;99.90;;;;;;5088928;28;20048;-42
2022/07/10 05:16:12;;;;;;;7.50;1.10;;;13.30;99.90;;;;;;5088049;28;20608;-41
2022/07/10 05:18:39;;;;;;;6.63;0.50;;;13.30;99.90;;;;;;5087720;28;20549;-41
2022/07/10 05:21:05;;;;;;;8.30;0.80;;;13.40;99.90;;;;;;5088544;28;20043;-41
2022/07/10 05:23:30;;;;;;;5.95;0.60;;;13.40;99.90;;;;;;5088413;28;20098;-41
2022/07/10 05:25:56;;;;;;;8.15;0.90;;;13.50;99.90;;;;;;5088245;28;20036;-42
2022/07/10 05:28:22;;;;;;;5.03;0.60;;;13.50;99.90;;;;;;5088464;28;20115;-41
2022/07/10 05:30:48;;;;;;;4.88;0.43;;;14.00;99.90;;;;;;5088222;28;20071;-41
2022/07/10 05:33:17;;;;;;;6.18;1.25;;;13.70;99.90;;;;;;5088248;28;20083;-40
2022/07/10 05:35:43;;;;;;;6.70;1.08;;;13.60;99.90;;;;;;5088111;28;20202;-41
2022/07/10 05:38:09;;;;;;;5.55;0.50;;;14.00;99.90;;;;;;5088472;28;20147;-41
2022/07/10 05:40:34;;;;;;;9.65;1.75;;;13.80;99.90;;;;;;5088185;28;20040;-42
2022/07/10 05:43:00;;;;;;;6.28;0.50;;;14.00;99.90;;;;;;5088065;28;20044;-42
2022/07/10 05:45:26;;;;;;;5.20;0.73;;;14.10;99.90;;;;;;5087858;28;20075;-44
2022/07/10 05:47:52;;;;;;;8.00;0.73;;;14.20;99.90;;;;;;5087937;28;20040;-40
2022/07/10 05:50:18;;;;;;;7.15;0.70;;;14.30;99.90;;;;;;5088167;28;20047;-41
2022/07/10 05:52:44;;;;;;;3.28;0.50;;;14.30;99.90;;;;;;5088159;28;20051;-42
2022/07/10 05:55:09;;;;;;;8.30;0.90;;;14.40;99.90;;;;;;5087941;28;20497;-41
2022/07/10 05:57:36;;;;;;;6.57;0.80;;;14.40;99.90;;;;;;5088447;28;20463;-41
2022/07/10 06:00:05;;;;;;;9.55;1.02;;;14.40;99.90;;;;;;5087830;28;20059;-41
2022/07/10 06:02:31;;;;;;;7.53;0.77;;;14.50;99.90;;;;;;5087707;28;20032;-44
2022/07/10 06:04:56;;;;;;;7.53;0.52;;;14.60;99.90;;;;;;5087082;28;20474;-42
2022/07/10 06:07:22;;;;;;;6.90;0.77;;;14.70;99.90;;;;;;5087439;28;20046;-41
2022/07/10 06:09:48;;;;;;;9.35;0.68;;;14.80;99.90;;;;;;5087003;28;20054;-41
2022/07/10 06:12:15;;;;;;;9.55;1.35;;;14.80;99.90;;;;;;5087715;28;20112;-41
2022/07/10 06:14:41;;;;;;;7.18;0.77;;;14.90;99.90;;;;;;5087966;28;20047;-44
2022/07/10 06:17:07;;;;;;;4.50;0.40;;;14.90;99.90;;;;;;5087771;28;20474;-41
2022/07/10 06:19:33;;;;;;;6.22;0.50;;;15.00;99.90;;;;;;5086520;28;20055;-42
2022/07/10 06:22:44;;;;;;;6.10;0.73;;;15.10;99.90;;;;;;5087185;28;20050;-42
2022/07/10 06:24:44;;;;;;;4.95;0.50;;;15.10;99.90;;;;;;5083397;28;20048;-41
2022/07/10 06:27:11;;;;;;;6.60;0.60;;;15.20;99.90;;;;;;5088090;28;20127;-42
2022/07/10 06:29:36;;;;;;;8.15;0.70;;;15.30;99.90;;;;;;5088028;28;20039;-43
2022/07/10 06:32:03;;;;;;;7.38;0.70;;;15.30;99.90;;;;;;5087477;28;20097;-41
2022/07/10 06:34:28;;;;;;;7.82;0.60;;;15.40;99.90;;;;;;5087789;28;20047;-41
2022/07/10 06:36:54;;;;;;;5.53;0.43;;;15.50;99.90;;;;;;5087623;28;20044;-43
2022/07/10 06:39:20;;;;;;;7.88;0.70;;;15.40;99.90;;;;;;5087340;28;20123;-43
2022/07/10 06:41:45;;;;;;;5.65;0.45;;;15.60;99.90;;;;;;5087575;28;20077;-42
2022/07/10 06:44:11;;;;;;;9.65;0.50;;;15.60;99.90;;;;;;5087821;28;20478;-44
2022/07/10 06:46:37;;;;;;;8.50;0.45;;;15.60;99.90;;;;;;5087627;28;20279;-41
2022/07/10 06:49:03;;;;;;;6.93;1.52;;;15.50;99.90;;;;;;5086918;28;20043;-41
2022/07/10 06:51:28;;;;;;;5.45;0.50;;;15.50;99.90;;;;;;5086791;28;20045;-41
2022/07/10 06:53:55;;;;;;;7.75;0.60;;;15.90;99.90;;;;;;5087977;28;20036;-43
2022/07/10 06:56:21;;;;;;;5.88;0.75;;;15.60;99.90;;;;;;5089309;28;20075;-42
2022/07/10 06:58:47;;;;;;;4.35;0.60;;;15.60;99.90;;;;;;5090067;28;20066;-42
2022/07/10 07:01:12;;;;;;;6.18;1.05;;;15.70;99.90;;;;;;5089181;28;20630;-41
2022/07/10 07:03:38;;;;;;;3.97;0.30;;;15.80;99.90;;;;;;5089573;28;20047;-42
2022/07/10 07:06:04;;;;;;;7.13;1.10;;;15.90;99.90;;;;;;5090143;28;20170;-42
2022/07/10 07:08:30;;;;;;;4.53;0.40;;;16.00;99.90;;;;;;5089399;28;20117;-42
2022/07/10 07:10:56;;;;;;;8.77;1.10;;;16.10;99.90;;;;;;5088400;28;20058;-43
2022/07/10 07:13:21;;;;;;;5.40;0.70;;;16.10;99.90;;;;;;5089859;28;20052;-42
2022/07/10 07:15:57;;;;;;;4.50;0.35;;;16.20;99.90;;;;;;5089535;28;20044;-41
2022/07/10 07:18:32;;;;;;;6.15;0.57;;;16.20;99.90;;;;;;5089865;28;20042;-43
2022/07/10 07:23:43;;;;;;;5.97;1.23;;;16.20;99.90;;;;;;5090170;28;20051;-42
2022/07/10 07:26:09;;;;;;;5.30;0.68;;;16.10;99.90;;;;;;5090770;28;20040;-41
2022/07/10 07:28:35;;;;;;;7.15;0.55;;;16.00;99.90;;;;;;5090231;28;20039;-42
2022/07/10 07:31:00;;;;;;;6.70;0.70;;;15.90;99.90;;;;;;5089839;28;20453;-42
2022/07/10 07:33:26;;;;;;;8.38;0.55;;;16.10;99.90;;;;;;5088710;28;20556;-43
2022/07/10 07:35:52;;;;;;;5.47;0.50;;;15.90;99.90;;;;;;5089639;28;20044;-41
2022/07/10 07:38:17;;;;;;;9.68;0.75;;;15.90;99.90;;;;;;5089995;28;20075;-42
2022/07/10 07:40:44;;;;;;;5.88;0.80;;;16.40;99.90;;;;;;5090260;28;20047;-43
2022/07/10 07:43:09;;;;;;;7.47;0.57;;;16.70;99.90;;;;;;5090065;28;20113;-41
2022/07/10 07:45:35;;;;;;;4.57;0.32;;;17.10;99.90;;;;;;5089598;28;20490;-42
2022/07/10 07:48:01;;;;;;;4.22;0.40;;;17.50;99.90;;;;;;5089149;28;20036;-42
2022/07/10 07:50:32;;;;;;;5.20;0.73;;;17.90;99.90;;;;;;5089220;28;20040;-42
2022/07/10 07:52:59;;;;;;;4.82;0.52;;;18.40;99.90;;;;;;5088872;28;20439;-42
2022/07/10 07:55:26;;;;;;;4.80;1.05;;;18.90;99.90;;;;;;5088133;28;20078;-43
2022/07/10 07:57:53;;;;;;;2.67;0.55;;;19.40;99.90;;;;;;5088667;28;20040;-42
2022/07/10 08:00:22;;;;;;;4.32;0.35;;;20.00;99.90;;;;;;5087816;28;20458;-42
2022/07/10 08:02:49;;;;;;;7.25;0.65;;;20.20;99.90;;;;;;5088618;28;20589;-44
2022/07/10 08:05:15;;;;;;;5.10;0.32;;;20.30;99.90;;;;;;5087218;28;20055;-43
2022/07/10 08:07:46;;;;;;;6.97;0.52;;;20.10;99.90;;;;;;5087880;28;20032;-42
2022/07/10 08:10:14;;;;;;;2.22;0.40;;;19.90;99.90;;;;;;5087905;28;20032;-42
2022/07/10 08:12:42;;;;;;;6.32;0.40;;;19.70;99.90;;;;;;5087584;28;20067;-43
2022/07/10 08:15:11;;;;;;;3.92;0.40;;;19.50;99.90;;;;;;5088377;28;20040;-41
2022/07/10 08:17:38;;;;;;;4.20;0.32;;;19.20;99.90;;;;;;5088433;28;20042;-41
2022/07/10 08:20:05;;;;;;;3.47;0.38;;;19.00;99.90;;;;;;5088102;28;20131;-43
2022/07/10 08:22:32;;;;;;;2.63;0.30;;;18.80;99.90;;;;;;5088556;28;20172;-41
2022/07/10 08:24:58;;;;;;;6.22;0.50;;;18.80;99.90;;;;;;5088281;28;20047;-41
2022/07/10 08:27:24;;;;;;;2.95;0.40;;;18.90;99.90;;;;;;5088327;28;20044;-41
2022/07/10 08:29:50;;;;;;;2.13;0.22;;;19.10;99.90;;;;;;5088523;28;20123;-43
2022/07/10 08:32:16;;;;;;;5.70;0.20;;;19.40;99.90;;;;;;5087834;28;20463;-43
2022/07/10 08:34:42;;;;;;;2.22;0.17;;;19.60;99.90;;;;;;5088675;28;20044;-41
2022/07/10 08:37:07;;;;;;;2.15;0.15;;;19.70;99.90;;;;;;5087504;28;20039;-42
2022/07/10 08:39:33;;;;;;;2.72;0.20;;;19.70;99.90;;;;;;5088096;28;20055;-44
2022/07/10 08:41:59;;;;;;;1.67;0.20;;;19.60;99.90;;;;;;5087461;28;20040;-41
2022/07/10 08:44:27;;;;;;;2.38;0.17;;;19.50;99.90;;;;;;5087675;28;20143;-42
2022/07/10 08:46:53;;;;;;;1.52;0.10;;;19.40;99.90;;;;;;5086846;28;20071;-43
2022/07/10 08:49:25;;;;;;;2.80;0.10;;;19.30;99.90;;;;;;5086863;28;20094;-42
2022/07/10 08:52:21;;;;;;;2.13;0.10;;;19.20;99.90;;;;;;5087026;28;20044;-42
2022/07/10 08:54:47;;;;;;;1.50;0.17;;;19.20;99.90;;;;;;5087605;28;20386;-44
2022/07/10 08:57:15;;;;;;;3.13;0.20;;;19.10;99.90;;;;;;5087742;28;20071;-42
2022/07/10 08:59:41;;;;;;;1.27;0.10;;;19.10;99.90;;;;;;5087181;28;20073;-42
2022/07/10 09:02:07;;;;;;;1.73;0.20;;;19.10;99.90;;;;;;5086541;28;20040;-46
2022/07/10 09:04:32;;;;;;;2.28;0.10;;;19.10;99.90;;;;;;5087656;28;20036;-43
2022/07/10 09:06:58;;;;;;;5.22;0.22;;;19.20;99.90;;;;;;5087995;28;20279;-45
2022/07/10 09:09:24;;;;;;;6.32;0.65;;;19.30;99.90;;;;;;5087335;28;20042;-43
2022/07/10 09:11:58;;;;;;;3.80;0.30;;;19.50;99.90;;;;;;5087382;28;20060;-44
2022/07/10 09:14:27;;;;;;;1.10;0.10;;;19.60;99.90;;;;;;5086080;28;20416;-42
2022/07/10 09:16:53;;;;;;;5.38;0.93;;;19.80;99.90;;;;;;5087673;28;20031;-43
2022/07/10 09:19:27;;;;;;;2.10;0.10;;;19.90;99.90;;;;;;5087687;28;20040;-43
2022/07/10 09:21:54;;;;;;;2.30;0.80;;;19.90;99.90;;;;;;5087987;28;20061;-44
2022/07/10 09:24:21;;;;;;;1.73;0.17;;;19.90;99.90;;;;;;5086769;28;20390;-43
2022/07/10 09:26:56;;;;;;;2.42;0.10;;;19.70;99.50;;;;;;5087838;28;20043;-44
2022/07/10 09:29:21;;;;;;;3.58;0.20;;;19.40;98.90;;;;;;5087786;28;20040;-42
2022/07/10 09:31:58;;;;;;;2.90;0.35;;;19.20;99.60;;;;;;5087979;28;20123;-42
2022/07/10 09:37:42;;;;;;;2.33;0.20;;;19.20;99.90;;;;;;5087400;28;20043;-45
2022/07/10 09:40:08;;;;;;;3.28;0.20;;;19.40;99.90;;;;;;5087571;28;20093;-42
2022/07/10 09:42:39;;;;;;;3.67;0.55;;;19.60;99.90;;;;;;5087193;28;20040;-42
2022/07/10 09:45:12;;;;;;;3.97;0.30;;;19.70;99.90;;;;;;5087564;28;20047;-43
2022/07/10 09:47:58;;;;;;;3.50;0.20;;;19.60;99.90;;;;;;5087702;28;20044;-44
2022/07/10 09:50:25;;;;;;;4.07;0.25;;;19.50;99.90;;;;;;5088023;28;20039;-43
2022/07/10 09:52:55;;;;;;;3.25;0.50;;;19.60;99.90;;;;;;5087701;28;20615;-42
2022/07/10 09:55:24;;;;;;;3.97;0.30;;;19.60;99.90;;;;;;5087821;28;20044;-43
2022/07/10 09:58:01;;;;;;;4.05;0.10;;;19.60;99.90;;;;;;5087994;28;20048;-43
2022/07/10 10:00:30;;;;;;;2.40;0.50;;;19.60;99.90;;;;;;5087160;28;20389;-42
2022/07/10 10:03:02;;;;;;;2.05;0.30;;;19.60;99.90;;;;;;5087933;28;20043;-42
2022/07/10 10:05:38;;;;;;;2.58;0.03;;;19.50;99.90;;;;;;5086420;28;20036;-42
2022/07/10 10:08:14;;;;;;;1.70;0.10;;;19.50;99.90;;;;;;5088122;28;20128;-44
2022/07/10 10:10:45;;;;;;;1.10;0.28;;;19.50;99.90;;;;;;5087779;28;20040;-45
2022/07/10 10:13:11;;;;;;;2.00;0.10;;;19.60;99.90;;;;;;5087723;28;20051;-43
2022/07/10 10:15:38;;;;;;;2.08;0.20;;;19.50;99.90;;;;;;5087280;28;20036;-43
2022/07/10 10:18:05;;;;;;;2.10;0.20;;;19.30;99.90;;;;;;5087250;28;20055;-43
2022/07/10 10:20:38;;;;;;;1.10;0.10;;;19.20;99.90;;;;;;5087381;28;20116;-42
2022/07/10 10:23:11;;;;;;;3.40;0.20;;;19.20;99.90;;;;;;5087795;28;20111;-41
2022/07/10 10:25:38;;;;;;;2.45;0.10;;;19.30;99.90;;;;;;5087433;28;20081;-43
2022/07/10 10:28:06;;;;;;;2.97;0.17;;;19.40;99.90;;;;;;5088443;28;20040;-42
2022/07/10 10:30:37;;;;;;;1.95;0.13;;;19.30;99.90;;;;;;5089882;28;20044;-43
2022/07/10 10:33:02;;;;;;;0.35;0.10;;;19.20;99.90;;;;;;5091202;28;20486;-43
2022/07/10 10:35:48;;;;;;;2.65;0.10;;;19.10;99.90;;;;;;5091030;28;20115;-44
2022/07/10 10:38:17;;;;;;;1.67;0.20;;;19.00;99.90;;;;;;5090730;28;20477;-41
2022/07/10 10:40:43;;;;;;;3.03;0.25;;;18.90;99.90;;;;;;5091084;28;20054;-43
2022/07/10 10:43:23;;;;;;;3.83;0.20;;;18.90;99.90;;;;;;5090633;28;20501;-43
2022/07/10 10:45:52;;;;;;;6.00;0.30;;;19.10;99.90;;;;;;5090588;28;20505;-43
2022/07/10 10:48:21;;;;;;;1.98;0.10;;;19.30;99.90;;;;;;5090899;28;20040;-43
2022/07/10 10:50:56;;;;;;;1.30;0.30;;;19.60;99.90;;;;;;5091458;28;20048;-42
2022/07/10 10:53:29;;;;;;;4.78;0.30;;;20.00;99.90;;;;;;5090650;28;20045;-43
2022/07/10 10:56:03;;;;;;;1.40;0.10;;;20.70;99.90;;;;;;5090000;28;20127;-42
2022/07/10 10:58:43;;;;;;;1.90;0.35;;;21.20;99.90;;;;;;5090083;28;20123;-42
2022/07/10 11:01:29;;;;;;;3.28;0.40;;;21.50;99.90;;;;;;5089733;28;20048;-42
2022/07/10 11:04:04;;;;;;;2.15;0.40;;;21.80;99.90;;;;;;5090091;28;20040;-42
2022/07/10 11:06:46;;;;;;;2.45;0.20;;;22.10;99.90;;;;;;5089859;28;20043;-42
2022/07/10 11:09:22;;;;;;;1.70;0.22;;;22.60;99.90;;;;;;5090411;28;20113;-42
2022/07/10 11:12:10;;;;;;;4.03;0.30;;;22.90;99.90;;;;;;5090394;28;20087;-42
2022/07/10 11:14:39;;;;;;;3.40;0.30;;;22.80;98.80;;;;;;5090318;28;20509;-44
2022/07/10 11:17:06;;;;;;;2.72;0.30;;;22.60;99.90;;;;;;5090079;28;20040;-41
2022/07/10 11:19:33;;;;;;;3.05;0.20;;;22.30;99.20;;;;;;5090322;28;20118;-41
2022/07/10 11:22:20;;;;;;;2.28;0.20;;;21.80;99.20;;;;;;5090303;28;20059;-42
2022/07/10 11:24:54;;;;;;;4.43;0.30;;;21.40;99.60;;;;;;5089169;28;20044;-43
2022/07/10 11:27:49;;;;;;;3.03;0.40;;;21.00;99.90;;;;;;5089973;28;20036;-43
2022/07/10 11:30:15;;;;;;;3.47;0.40;;;20.80;99.90;;;;;;5089604;28;20040;-43
2022/07/10 11:32:40;;;;;;;1.83;0.32;;;20.80;99.90;;;;;;5089774;28;20043;-42
2022/07/10 11:35:11;;;;;;;3.70;0.52;;;20.80;99.90;;;;;;5090088;28;20056;-43
2022/07/10 11:37:50;;;;;;;4.63;0.50;;;20.80;99.90;;;;;;5089701;28;20044;-43
2022/07/10 11:40:16;;;;;;;1.95;0.50;;;20.70;99.90;;;;;;5089371;28;20048;-41
2022/07/10 11:42:55;;;;;;;4.10;0.77;;;20.60;99.90;;;;;;5089233;28;20048;-43
2022/07/10 11:45:29;;;;;;;3.25;1.25;;;20.40;99.90;;;;;;5089961;28;20044;-43
2022/07/10 11:47:56;;;;;;;3.95;0.60;;;20.30;99.90;;;;;;5089788;28;20060;-42
2022/07/10 11:50:22;;;;;;;5.80;0.50;;;20.20;99.90;;;;;;5089798;28;20086;-42
2022/07/10 11:52:49;;;;;;;5.85;0.77;;;20.10;99.90;;;;;;5089360;28;20047;-44
2022/07/10 11:55:20;;;;;;;4.45;0.60;;;20.00;99.90;;;;;;5089855;28;20083;-43
2022/07/10 11:57:49;;;;;;;1.90;0.40;;;20.10;99.90;;;;;;5089679;28;20059;-43
2022/07/10 12:00:23;;;;;;;5.97;0.63;;;20.30;99.90;;;;;;5089636;28;20044;-43
2022/07/10 12:02:50;;;;;;;3.35;0.50;;;20.70;99.90;;;;;;5087675;28;20047;-45
2022/07/10 12:05:38;;;;;;;2.45;0.40;;;21.10;99.90;;;;;;5089498;28;20102;-42
2022/07/10 12:08:05;;;;;;;3.63;0.70;;;21.40;99.90;;;;;;5089421;28;20040;-43
2022/07/10 12:10:32;;;;;;;6.53;0.93;;;21.60;99.90;;;;;;5086829;28;20504;-44
2022/07/10 12:13:13;;;;;;;9.55;0.60;;;21.50;99.90;;;;;;5089007;28;20051;-42
2022/07/10 12:15:42;;;;;;;4.22;0.50;;;21.30;99.90;;;;;;5089205;28;20086;-43
2022/07/10 12:18:16;;;;;;;6.75;0.70;;;20.90;99.90;;;;;;5089034;28;20059;-42
2022/07/10 12:20:45;;;;;;;2.22;0.30;;;20.50;99.90;;;;;;5089201;28;20051;-43
2022/07/10 12:23:14;;;;;;;4.25;0.50;;;20.30;99.90;;;;;;5089242;28;20051;-44
2022/07/10 12:25:42;;;;;;;3.47;0.38;;;20.20;99.90;;;;;;5088800;28;20071;-43
2022/07/10 12:28:07;;;;;;;3.17;0.32;;;20.20;99.90;;;;;;5089371;28;20036;-43
2022/07/10 12:30:44;;;;;;;4.03;0.43;;;20.10;99.90;;;;;;5088872;28;20500;-45
2022/07/10 12:33:17;;;;;;;1.52;0.40;;;20.20;99.90;;;;;;5089570;28;20055;-43
2022/07/10 12:35:48;;;;;;;3.53;0.40;;;20.30;99.90;;;;;;5088741;28;20048;-42
2022/07/10 12:38:25;;;;;;;4.07;0.40;;;20.30;99.90;;;;;;5088366;28;20043;-43
2022/07/10 12:41:05;;;;;;;2.55;0.17;;;20.30;99.90;;;;;;5087698;28;20074;-45
2022/07/10 12:43:31;;;;;;;2.08;0.52;;;20.30;99.90;;;;;;5089097;28;20651;-42
2022/07/10 12:46:15;;;;;;;3.22;0.70;;;20.30;99.90;;;;;;5089486;28;20047;-42
2022/07/10 12:48:43;;;;;;;1.13;0.30;;;20.20;99.90;;;;;;5089046;28;20044;-44
2022/07/10 12:51:30;;;;;;;2.42;0.20;;;20.00;99.90;;;;;;5087413;28;20550;-43
2022/07/10 12:53:56;;;;;;;1.65;0.30;;;19.90;99.90;;;;;;5088369;28;20043;-42
2022/07/10 12:56:34;;;;;;;2.60;0.50;;;20.10;99.90;;;;;;5088065;28;20047;-42
2022/07/10 12:59:00;;;;;;;1.77;0.30;;;20.30;99.90;;;;;;5088295;28;20036;-42
2022/07/10 13:01:28;;;;;;;2.45;0.70;;;20.30;99.90;;;;;;5088177;28;20788;-43